Lublin, Wisconsin
Current Conditions -  °F | °C
As of 10:55 AM on Tuesday 27 Jan 2015 (Local Time) from KMDZ Reporting Station
Haze Haze  
Wind Chill: 23°   Ceiling: 600
Heat Index: 23°   Visibility: 5mi
Dew Point: 21°   Wind: 3mph
Humidity: 91%   Direction: 100°E
Pressure: 30.15"   Gusts: NA
Location:  45.08°N, 90.72°W
Report Text: KMDZ 271655Z AUTO 10003KT 5SM BR OVC006 M05/M06 A3015 RMK AO2 T10501063
Loading
Personal Weather Stations






























Interactive Weather Map New forecast layout! Learn more

10-Day Weather Forecast

Advertisements
Track Severe Weather on mobile